sensor_id;sensor_type;location;lat;lon;timestamp;P1;durP1;ratioP1;P2;durP2;ratioP2
59193;SDS011;44967;48.598;15.650;2023-04-12T00:01:18;3.05;;;0.98;;
59193;SDS011;44967;48.598;15.650;2023-04-12T00:03:43;2.47;;;0.85;;
59193;SDS011;44967;48.598;15.650;2023-04-12T00:06:15;3.72;;;1.42;;
59193;SDS011;44967;48.598;15.650;2023-04-12T00:08:41;1.60;;;1.50;;
59193;SDS011;44967;48.598;15.650;2023-04-12T00:11:11;2.33;;;1.40;;
59193;SDS011;44967;48.598;15.650;2023-04-12T00:13:37;4.38;;;1.65;;
59193;SDS011;44967;48.598;15.650;2023-04-12T00:16:03;6.68;;;2.47;;
59193;SDS011;44967;48.598;15.650;2023-04-12T00:18:29;3.38;;;1.98;;
59193;SDS011;44967;48.598;15.650;2023-04-12T00:20:55;4.88;;;2.28;;
59193;SDS011;44967;48.598;15.650;2023-04-12T00:23:20;3.05;;;1.85;;
59193;SDS011;44967;48.598;15.650;2023-04-12T00:25:49;2.45;;;1.83;;
59193;SDS011;44967;48.598;15.650;2023-04-12T00:28:15;2.83;;;1.70;;
59193;SDS011;44967;48.598;15.650;2023-04-12T00:30:41;1.30;;;1.15;;
59193;SDS011;44967;48.598;15.650;2023-04-12T00:33:07;3.58;;;1.33;;
59193;SDS011;44967;48.598;15.650;2023-04-12T00:35:32;1.85;;;1.40;;
59193;SDS011;44967;48.598;15.650;2023-04-12T00:37:58;1.70;;;1.30;;
59193;SDS011;44967;48.598;15.650;2023-04-12T00:40:24;2.15;;;1.48;;
59193;SDS011;44967;48.598;15.650;2023-04-12T00:42:49;3.33;;;1.73;;
59193;SDS011;44967;48.598;15.650;2023-04-12T00:45:15;4.25;;;1.42;;
59193;SDS011;44967;48.598;15.650;2023-04-12T00:47:41;1.70;;;1.48;;
59193;SDS011;44967;48.598;15.650;2023-04-12T00:50:08;3.00;;;1.38;;
59193;SDS011;44967;48.598;15.650;2023-04-12T00:52:35;1.73;;;1.63;;
59193;SDS011;44967;48.598;15.650;2023-04-12T00:55:04;3.38;;;1.65;;
59193;SDS011;44967;48.598;15.650;2023-04-12T00:57:34;4.53;;;1.73;;
59193;SDS011;44967;48.598;15.650;2023-04-12T01:00:02;3.22;;;1.73;;
59193;SDS011;44967;48.598;15.650;2023-04-12T01:02:40;2.47;;;1.38;;
59193;SDS011;44967;48.598;15.650;2023-04-12T01:05:11;1.67;;;1.35;;
59193;SDS011;44967;48.598;15.650;2023-04-12T01:16:10;2.00;;;1.30;;
59193;SDS011;44967;48.598;15.650;2023-04-12T01:18:42;2.83;;;1.23;;
59193;SDS011;44967;48.598;15.650;2023-04-12T01:21:19;2.40;;;1.40;;
59193;SDS011;44967;48.598;15.650;2023-04-12T01:24:08;2.08;;;1.40;;
59193;SDS011;44967;48.598;15.650;2023-04-12T01:27:00;1.80;;;1.27;;
59193;SDS011;44967;48.598;15.650;2023-04-12T01:29:28;2.88;;;1.70;;
59193;SDS011;44967;48.598;15.650;2023-04-12T01:32:00;2.17;;;1.40;;
59193;SDS011;44967;48.598;15.650;2023-04-12T01:34:27;2.72;;;1.52;;
59193;SDS011;44967;48.598;15.650;2023-04-12T01:36:56;4.38;;;1.80;;
59193;SDS011;44967;48.598;15.650;2023-04-12T01:39:23;2.28;;;1.52;;
59193;SDS011;44967;48.598;15.650;2023-04-12T01:41:49;1.90;;;1.67;;
59193;SDS011;44967;48.598;15.650;2023-04-12T01:44:15;2.03;;;1.40;;
59193;SDS011;44967;48.598;15.650;2023-04-12T01:46:44;2.50;;;1.50;;
59193;SDS011;44967;48.598;15.650;2023-04-12T01:49:11;2.28;;;1.10;;
59193;SDS011;44967;48.598;15.650;2023-04-12T01:54:08;2.88;;;1.40;;
59193;SDS011;44967;48.598;15.650;2023-04-12T01:56:42;9.98;;;1.65;;
59193;SDS011;44967;48.598;15.650;2023-04-12T01:59:13;2.47;;;1.50;;
59193;SDS011;44967;48.598;15.650;2023-04-12T02:01:40;2.45;;;1.40;;
59193;SDS011;44967;48.598;15.650;2023-04-12T02:04:09;3.22;;;1.48;;
59193;SDS011;44967;48.598;15.650;2023-04-12T02:06:36;1.30;;;0.90;;
59193;SDS011;44967;48.598;15.650;2023-04-12T02:09:03;1.63;;;0.88;;
59193;SDS011;44967;48.598;15.650;2023-04-12T02:11:33;1.70;;;1.30;;
59193;SDS011;44967;48.598;15.650;2023-04-12T02:13:59;1.65;;;1.20;;
59193;SDS011;44967;48.598;15.650;2023-04-12T02:16:24;3.55;;;1.30;;
59193;SDS011;44967;48.598;15.650;2023-04-12T02:18:53;3.20;;;0.90;;
59193;SDS011;44967;48.598;15.650;2023-04-12T02:21:21;1.00;;;0.90;;
59193;SDS011;44967;48.598;15.650;2023-04-12T02:23:47;1.35;;;0.80;;
59193;SDS011;44967;48.598;15.650;2023-04-12T02:26:12;1.17;;;1.02;;
59193;SDS011;44967;48.598;15.650;2023-04-12T02:28:38;1.67;;;1.30;;
59193;SDS011;44967;48.598;15.650;2023-04-12T02:31:04;1.15;;;0.90;;
59193;SDS011;44967;48.598;15.650;2023-04-12T02:33:31;1.30;;;0.98;;
59193;SDS011;44967;48.598;15.650;2023-04-12T02:35:57;8.45;;;1.80;;
59193;SDS011;44967;48.598;15.650;2023-04-12T02:38:23;2.05;;;1.17;;
59193;SDS011;44967;48.598;15.650;2023-04-12T02:40:49;1.13;;;0.80;;
59193;SDS011;44967;48.598;15.650;2023-04-12T02:43:15;3.38;;;1.13;;
59193;SDS011;44967;48.598;15.650;2023-04-12T02:45:41;1.55;;;1.00;;
59193;SDS011;44967;48.598;15.650;2023-04-12T02:48:07;1.10;;;1.00;;
59193;SDS011;44967;48.598;15.650;2023-04-12T02:50:33;3.22;;;2.00;;
59193;SDS011;44967;48.598;15.650;2023-04-12T02:52:58;0.98;;;0.85;;
59193;SDS011;44967;48.598;15.650;2023-04-12T02:55:24;0.80;;;0.80;;
59193;SDS011;44967;48.598;15.650;2023-04-12T02:57:51;1.27;;;0.90;;
59193;SDS011;44967;48.598;15.650;2023-04-12T03:00:17;1.17;;;0.70;;
59193;SDS011;44967;48.598;15.650;2023-04-12T03:02:44;0.77;;;0.70;;
59193;SDS011;44967;48.598;15.650;2023-04-12T03:05:10;0.88;;;0.60;;
59193;SDS011;44967;48.598;15.650;2023-04-12T03:07:36;1.65;;;0.70;;
59193;SDS011;44967;48.598;15.650;2023-04-12T03:10:03;0.80;;;0.70;;
59193;SDS011;44967;48.598;15.650;2023-04-12T03:12:32;2.75;;;0.82;;
59193;SDS011;44967;48.598;15.650;2023-04-12T03:14:57;2.38;;;0.77;;
59193;SDS011;44967;48.598;15.650;2023-04-12T03:17:23;1.15;;;0.93;;
59193;SDS011;44967;48.598;15.650;2023-04-12T03:19:49;0.98;;;0.68;;
59193;SDS011;44967;48.598;15.650;2023-04-12T03:22:15;2.15;;;1.15;;
59193;SDS011;44967;48.598;15.650;2023-04-12T03:24:40;0.70;;;0.60;;
59193;SDS011;44967;48.598;15.650;2023-04-12T03:27:09;2.15;;;0.80;;
59193;SDS011;44967;48.598;15.650;2023-04-12T03:29:35;0.70;;;0.70;;
59193;SDS011;44967;48.598;15.650;2023-04-12T03:32:01;1.23;;;0.77;;
59193;SDS011;44967;48.598;15.650;2023-04-12T03:34:26;1.63;;;0.80;;
59193;SDS011;44967;48.598;15.650;2023-04-12T03:37:00;2.30;;;1.02;;
59193;SDS011;44967;48.598;15.650;2023-04-12T03:39:26;1.23;;;1.10;;
59193;SDS011;44967;48.598;15.650;2023-04-12T03:41:53;2.47;;;0.90;;
59193;SDS011;44967;48.598;15.650;2023-04-12T03:44:19;2.08;;;0.90;;
59193;SDS011;44967;48.598;15.650;2023-04-12T03:46:46;1.52;;;0.60;;
59193;SDS011;44967;48.598;15.650;2023-04-12T03:49:12;2.92;;;1.02;;
59193;SDS011;44967;48.598;15.650;2023-04-12T03:51:38;1.48;;;0.77;;
59193;SDS011;44967;48.598;15.650;2023-04-12T03:54:08;1.75;;;0.80;;
59193;SDS011;44967;48.598;15.650;2023-04-12T03:56:34;3.00;;;0.90;;
59193;SDS011;44967;48.598;15.650;2023-04-12T03:59:00;1.20;;;0.70;;
59193;SDS011;44967;48.598;15.650;2023-04-12T04:01:26;1.33;;;0.65;;
59193;SDS011;44967;48.598;15.650;2023-04-12T04:03:52;1.13;;;0.82;;
59193;SDS011;44967;48.598;15.650;2023-04-12T04:06:18;1.10;;;0.90;;
59193;SDS011;44967;48.598;15.650;2023-04-12T04:08:47;1.48;;;0.80;;
59193;SDS011;44967;48.598;15.650;2023-04-12T04:11:12;0.90;;;0.90;;
59193;SDS011;44967;48.598;15.650;2023-04-12T04:13:38;2.60;;;1.08;;
59193;SDS011;44967;48.598;15.650;2023-04-12T04:16:04;1.40;;;0.88;;
59193;SDS011;44967;48.598;15.650;2023-04-12T04:18:31;2.42;;;1.10;;
59193;SDS011;44967;48.598;15.650;2023-04-12T04:20:57;1.92;;;1.10;;
59193;SDS011;44967;48.598;15.650;2023-04-12T04:23:23;2.58;;;1.13;;
59193;SDS011;44967;48.598;15.650;2023-04-12T04:25:49;1.60;;;1.35;;
59193;SDS011;44967;48.598;15.650;2023-04-12T04:28:18;1.77;;;1.67;;
59193;SDS011;44967;48.598;15.650;2023-04-12T04:30:43;2.55;;;1.63;;
59193;SDS011;44967;48.598;15.650;2023-04-12T04:33:11;2.75;;;1.40;;
59193;SDS011;44967;48.598;15.650;2023-04-12T04:35:40;1.83;;;1.20;;
59193;SDS011;44967;48.598;15.650;2023-04-12T04:38:09;1.10;;;1.00;;
59193;SDS011;44967;48.598;15.650;2023-04-12T04:40:37;1.15;;;1.00;;
59193;SDS011;44967;48.598;15.650;2023-04-12T04:43:03;2.65;;;1.20;;
59193;SDS011;44967;48.598;15.650;2023-04-12T04:45:29;2.80;;;1.58;;
59193;SDS011;44967;48.598;15.650;2023-04-12T04:47:56;3.00;;;1.13;;
59193;SDS011;44967;48.598;15.650;2023-04-12T04:50:23;2.00;;;1.00;;
59193;SDS011;44967;48.598;15.650;2023-04-12T04:52:50;1.55;;;1.45;;
59193;SDS011;44967;48.598;15.650;2023-04-12T04:55:19;3.05;;;1.20;;
59193;SDS011;44967;48.598;15.650;2023-04-12T04:57:51;1.23;;;0.98;;
59193;SDS011;44967;48.598;15.650;2023-04-12T05:00:17;1.75;;;0.95;;
59193;SDS011;44967;48.598;15.650;2023-04-12T05:02:43;3.90;;;1.13;;
59193;SDS011;44967;48.598;15.650;2023-04-12T05:05:10;0.73;;;0.70;;
59193;SDS011;44967;48.598;15.650;2023-04-12T05:07:40;1.73;;;1.15;;
59193;SDS011;44967;48.598;15.650;2023-04-12T05:10:08;4.38;;;2.15;;
59193;SDS011;44967;48.598;15.650;2023-04-12T05:12:35;3.97;;;2.15;;
59193;SDS011;44967;48.598;15.650;2023-04-12T05:15:01;3.13;;;2.30;;
59193;SDS011;44967;48.598;15.650;2023-04-12T05:17:27;3.88;;;2.38;;
59193;SDS011;44967;48.598;15.650;2023-04-12T05:19:53;3.63;;;2.25;;
59193;SDS011;44967;48.598;15.650;2023-04-12T05:22:19;5.13;;;2.55;;
59193;SDS011;44967;48.598;15.650;2023-04-12T05:24:48;3.45;;;2.10;;
59193;SDS011;44967;48.598;15.650;2023-04-12T05:27:15;8.38;;;2.35;;
59193;SDS011;44967;48.598;15.650;2023-04-12T05:29:43;3.85;;;2.95;;
59193;SDS011;44967;48.598;15.650;2023-04-12T05:32:09;2.58;;;2.13;;
59193;SDS011;44967;48.598;15.650;2023-04-12T05:34:35;3.90;;;2.05;;
59193;SDS011;44967;48.598;15.650;2023-04-12T05:37:01;4.38;;;2.20;;
59193;SDS011;44967;48.598;15.650;2023-04-12T05:39:28;3.72;;;2.13;;
59193;SDS011;44967;48.598;15.650;2023-04-12T05:41:54;5.22;;;2.75;;
59193;SDS011;44967;48.598;15.650;2023-04-12T05:44:20;4.05;;;2.63;;
59193;SDS011;44967;48.598;15.650;2023-04-12T05:46:46;4.22;;;2.83;;
59193;SDS011;44967;48.598;15.650;2023-04-12T05:49:12;3.25;;;2.08;;
59193;SDS011;44967;48.598;15.650;2023-04-12T05:51:38;3.40;;;2.28;;
59193;SDS011;44967;48.598;15.650;2023-04-12T05:54:03;3.90;;;1.90;;
59193;SDS011;44967;48.598;15.650;2023-04-12T05:56:33;5.75;;;3.45;;
59193;SDS011;44967;48.598;15.650;2023-04-12T05:58:58;6.07;;;2.97;;
59193;SDS011;44967;48.598;15.650;2023-04-12T06:01:27;17.60;;;8.07;;
59193;SDS011;44967;48.598;15.650;2023-04-12T06:03:56;7.50;;;4.53;;
59193;SDS011;44967;48.598;15.650;2023-04-12T06:06:22;4.18;;;3.15;;
59193;SDS011;44967;48.598;15.650;2023-04-12T06:08:47;2.47;;;2.13;;
59193;SDS011;44967;48.598;15.650;2023-04-12T06:11:13;6.53;;;2.58;;
59193;SDS011;44967;48.598;15.650;2023-04-12T06:13:40;6.25;;;2.90;;
59193;SDS011;44967;48.598;15.650;2023-04-12T06:16:06;3.95;;;2.53;;
59193;SDS011;44967;48.598;15.650;2023-04-12T06:18:32;5.32;;;2.22;;
59193;SDS011;44967;48.598;15.650;2023-04-12T06:20:57;3.83;;;2.47;;
59193;SDS011;44967;48.598;15.650;2023-04-12T06:23:23;3.42;;;1.95;;
59193;SDS011;44967;48.598;15.650;2023-04-12T06:25:49;3.90;;;1.90;;
59193;SDS011;44967;48.598;15.650;2023-04-12T06:28:15;2.70;;;1.92;;
59193;SDS011;44967;48.598;15.650;2023-04-12T06:30:41;3.45;;;1.98;;
59193;SDS011;44967;48.598;15.650;2023-04-12T06:33:06;3.40;;;2.42;;
59193;SDS011;44967;48.598;15.650;2023-04-12T06:35:32;3.53;;;2.08;;
59193;SDS011;44967;48.598;15.650;2023-04-12T06:37:58;5.18;;;2.20;;
59193;SDS011;44967;48.598;15.650;2023-04-12T06:40:23;7.38;;;2.88;;
59193;SDS011;44967;48.598;15.650;2023-04-12T06:42:49;5.68;;;3.10;;
59193;SDS011;44967;48.598;15.650;2023-04-12T06:45:17;5.57;;;3.00;;
59193;SDS011;44967;48.598;15.650;2023-04-12T06:47:44;5.32;;;2.33;;
59193;SDS011;44967;48.598;15.650;2023-04-12T06:50:09;3.88;;;2.63;;
59193;SDS011;44967;48.598;15.650;2023-04-12T06:52:35;3.92;;;2.40;;
59193;SDS011;44967;48.598;15.650;2023-04-12T06:55:01;7.53;;;3.58;;
59193;SDS011;44967;48.598;15.650;2023-04-12T06:57:26;10.85;;;3.38;;
59193;SDS011;44967;48.598;15.650;2023-04-12T06:59:52;6.55;;;2.50;;
59193;SDS011;44967;48.598;15.650;2023-04-12T07:02:18;4.25;;;2.58;;
59193;SDS011;44967;48.598;15.650;2023-04-12T07:04:43;3.97;;;1.80;;
59193;SDS011;44967;48.598;15.650;2023-04-12T07:07:09;3.55;;;2.28;;
59193;SDS011;44967;48.598;15.650;2023-04-12T07:09:35;4.00;;;2.00;;
59193;SDS011;44967;48.598;15.650;2023-04-12T07:12:00;2.83;;;2.05;;
59193;SDS011;44967;48.598;15.650;2023-04-12T07:14:27;4.28;;;2.00;;
59193;SDS011;44967;48.598;15.650;2023-04-12T07:16:53;5.03;;;2.00;;
59193;SDS011;44967;48.598;15.650;2023-04-12T07:19:18;2.33;;;1.77;;
59193;SDS011;44967;48.598;15.650;2023-04-12T07:21:44;2.58;;;1.83;;
59193;SDS011;44967;48.598;15.650;2023-04-12T07:24:10;3.25;;;1.58;;
59193;SDS011;44967;48.598;15.650;2023-04-12T07:26:36;4.00;;;1.42;;
59193;SDS011;44967;48.598;15.650;2023-04-12T07:29:07;3.65;;;2.00;;
59193;SDS011;44967;48.598;15.650;2023-04-12T07:31:33;3.20;;;1.70;;
59193;SDS011;44967;48.598;15.650;2023-04-12T07:33:59;3.28;;;2.28;;
59193;SDS011;44967;48.598;15.650;2023-04-12T07:36:27;7.95;;;4.32;;
59193;SDS011;44967;48.598;15.650;2023-04-12T07:38:52;1.65;;;1.15;;
59193;SDS011;44967;48.598;15.650;2023-04-12T07:41:20;2.72;;;1.27;;
59193;SDS011;44967;48.598;15.650;2023-04-12T07:43:47;2.55;;;1.10;;
59193;SDS011;44967;48.598;15.650;2023-04-12T07:46:12;2.55;;;1.50;;
59193;SDS011;44967;48.598;15.650;2023-04-12T07:48:38;2.08;;;1.17;;
59193;SDS011;44967;48.598;15.650;2023-04-12T07:51:04;1.35;;;0.70;;
59193;SDS011;44967;48.598;15.650;2023-04-12T07:53:30;1.00;;;0.90;;
59193;SDS011;44967;48.598;15.650;2023-04-12T07:55:55;1.80;;;1.08;;
59193;SDS011;44967;48.598;15.650;2023-04-12T07:58:21;1.02;;;0.85;;
59193;SDS011;44967;48.598;15.650;2023-04-12T08:00:48;1.17;;;0.70;;
59193;SDS011;44967;48.598;15.650;2023-04-12T08:03:15;1.77;;;1.05;;
59193;SDS011;44967;48.598;15.650;2023-04-12T08:05:42;4.45;;;1.30;;
59193;SDS011;44967;48.598;15.650;2023-04-12T08:08:08;1.70;;;0.90;;
59193;SDS011;44967;48.598;15.650;2023-04-12T08:10:36;2.55;;;0.90;;
59193;SDS011;44967;48.598;15.650;2023-04-12T08:13:02;0.60;;;0.60;;
59193;SDS011;44967;48.598;15.650;2023-04-12T08:15:28;1.00;;;0.65;;
59193;SDS011;44967;48.598;15.650;2023-04-12T08:17:54;0.82;;;0.70;;
59193;SDS011;44967;48.598;15.650;2023-04-12T08:20:20;2.90;;;0.98;;
59193;SDS011;44967;48.598;15.650;2023-04-12T08:22:46;1.55;;;0.90;;
59193;SDS011;44967;48.598;15.650;2023-04-12T08:25:13;1.33;;;0.70;;
59193;SDS011;44967;48.598;15.650;2023-04-12T08:27:42;1.63;;;0.88;;
59193;SDS011;44967;48.598;15.650;2023-04-12T08:30:09;1.30;;;0.95;;
59193;SDS011;44967;48.598;15.650;2023-04-12T08:32:36;0.57;;;0.52;;
59193;SDS011;44967;48.598;15.650;2023-04-12T08:35:02;2.13;;;0.75;;
59193;SDS011;44967;48.598;15.650;2023-04-12T08:37:32;2.30;;;0.80;;
59193;SDS011;44967;48.598;15.650;2023-04-12T08:40:02;1.17;;;0.65;;
59193;SDS011;44967;48.598;15.650;2023-04-12T08:42:30;3.22;;;0.82;;
59193;SDS011;44967;48.598;15.650;2023-04-12T08:44:58;1.83;;;0.93;;
59193;SDS011;44967;48.598;15.650;2023-04-12T08:47:28;3.45;;;1.10;;
59193;SDS011;44967;48.598;15.650;2023-04-12T08:49:54;2.28;;;0.80;;
59193;SDS011;44967;48.598;15.650;2023-04-12T08:52:22;1.77;;;0.70;;
59193;SDS011;44967;48.598;15.650;2023-04-12T08:54:47;2.33;;;1.08;;
59193;SDS011;44967;48.598;15.650;2023-04-12T08:57:13;1.25;;;0.70;;
59193;SDS011;44967;48.598;15.650;2023-04-12T08:59:42;3.47;;;1.13;;
59193;SDS011;44967;48.598;15.650;2023-04-12T09:02:09;0.82;;;0.60;;
59193;SDS011;44967;48.598;15.650;2023-04-12T09:04:50;0.90;;;0.70;;
59193;SDS011;44967;48.598;15.650;2023-04-12T09:07:17;3.28;;;0.90;;
59193;SDS011;44967;48.598;15.650;2023-04-12T09:09:44;1.83;;;0.90;;
59193;SDS011;44967;48.598;15.650;2023-04-12T09:12:11;1.95;;;0.68;;
59193;SDS011;44967;48.598;15.650;2023-04-12T09:14:38;3.08;;;0.70;;
59193;SDS011;44967;48.598;15.650;2023-04-12T09:17:04;2.97;;;0.73;;
59193;SDS011;44967;48.598;15.650;2023-04-12T09:19:48;2.67;;;0.60;;
59193;SDS011;44967;48.598;15.650;2023-04-12T09:22:13;1.20;;;0.60;;
59193;SDS011;44967;48.598;15.650;2023-04-12T09:24:49;1.10;;;0.63;;
59193;SDS011;44967;48.598;15.650;2023-04-12T09:27:17;2.92;;;0.82;;
59193;SDS011;44967;48.598;15.650;2023-04-12T09:29:46;4.47;;;0.80;;
59193;SDS011;44967;48.598;15.650;2023-04-12T09:32:25;3.03;;;1.00;;
59193;SDS011;44967;48.598;15.650;2023-04-12T09:34:55;1.40;;;0.70;;
59193;SDS011;44967;48.598;15.650;2023-04-12T09:37:22;1.35;;;0.90;;
59193;SDS011;44967;48.598;15.650;2023-04-12T09:39:57;1.55;;;0.88;;
59193;SDS011;44967;48.598;15.650;2023-04-12T09:42:29;0.95;;;0.70;;
59193;SDS011;44967;48.598;15.650;2023-04-12T09:44:58;1.40;;;0.73;;
59193;SDS011;44967;48.598;15.650;2023-04-12T09:47:39;1.65;;;0.75;;
59193;SDS011;44967;48.598;15.650;2023-04-12T09:50:05;2.85;;;0.70;;
59193;SDS011;44967;48.598;15.650;2023-04-12T09:52:38;1.63;;;0.65;;
59193;SDS011;44967;48.598;15.650;2023-04-12T09:55:08;2.15;;;0.80;;
59193;SDS011;44967;48.598;15.650;2023-04-12T09:57:44;2.30;;;0.80;;
59193;SDS011;44967;48.598;15.650;2023-04-12T10:00:10;1.67;;;0.80;;
59193;SDS011;44967;48.598;15.650;2023-04-12T10:02:41;3.03;;;1.13;;
59193;SDS011;44967;48.598;15.650;2023-04-12T10:05:12;3.25;;;0.80;;
59193;SDS011;44967;48.598;15.650;2023-04-12T10:07:39;2.17;;;0.63;;
59193;SDS011;44967;48.598;15.650;2023-04-12T10:10:06;1.63;;;0.75;;
59193;SDS011;44967;48.598;15.650;2023-04-12T10:12:34;1.95;;;0.90;;
59193;SDS011;44967;48.598;15.650;2023-04-12T10:15:05;2.63;;;0.80;;
59193;SDS011;44967;48.598;15.650;2023-04-12T10:17:39;1.55;;;0.75;;
59193;SDS011;44967;48.598;15.650;2023-04-12T10:20:10;2.90;;;0.80;;
59193;SDS011;44967;48.598;15.650;2023-04-12T10:22:40;1.63;;;0.75;;
59193;SDS011;44967;48.598;15.650;2023-04-12T10:25:18;2.55;;;0.75;;
59193;SDS011;44967;48.598;15.650;2023-04-12T10:27:46;1.83;;;0.70;;
59193;SDS011;44967;48.598;15.650;2023-04-12T10:32:44;3.83;;;0.68;;
59193;SDS011;44967;48.598;15.650;2023-04-12T10:35:10;3.38;;;0.73;;
59193;SDS011;44967;48.598;15.650;2023-04-12T10:40:25;1.45;;;0.57;;
59193;SDS011;44967;48.598;15.650;2023-04-12T10:45:54;1.05;;;0.60;;
59193;SDS011;44967;48.598;15.650;2023-04-12T10:48:30;2.13;;;0.90;;
59193;SDS011;44967;48.598;15.650;2023-04-12T10:53:51;2.67;;;0.77;;
59193;SDS011;44967;48.598;15.650;2023-04-12T10:58:56;2.22;;;0.70;;
59193;SDS011;44967;48.598;15.650;2023-04-12T11:01:24;1.25;;;0.90;;
59193;SDS011;44967;48.598;15.650;2023-04-12T11:09:45;1.38;;;0.85;;
59193;SDS011;44967;48.598;15.650;2023-04-12T11:12:13;1.88;;;0.98;;
59193;SDS011;44967;48.598;15.650;2023-04-12T11:14:46;2.50;;;0.95;;
59193;SDS011;44967;48.598;15.650;2023-04-12T11:19:41;2.90;;;0.68;;
59193;SDS011;44967;48.598;15.650;2023-04-12T11:22:09;3.47;;;1.40;;
59193;SDS011;44967;48.598;15.650;2023-04-12T11:24:36;1.35;;;0.80;;
59193;SDS011;44967;48.598;15.650;2023-04-12T11:27:03;3.40;;;1.10;;
59193;SDS011;44967;48.598;15.650;2023-04-12T11:29:29;2.03;;;1.13;;
59193;SDS011;44967;48.598;15.650;2023-04-12T11:31:57;2.97;;;1.17;;
59193;SDS011;44967;48.598;15.650;2023-04-12T11:34:23;2.78;;;0.80;;
59193;SDS011;44967;48.598;15.650;2023-04-12T11:36:53;5.18;;;1.10;;
59193;SDS011;44967;48.598;15.650;2023-04-12T11:39:19;5.15;;;0.90;;
59193;SDS011;44967;48.598;15.650;2023-04-12T11:41:46;2.45;;;1.00;;
59193;SDS011;44967;48.598;15.650;2023-04-12T11:44:13;1.35;;;0.85;;
59193;SDS011;44967;48.598;15.650;2023-04-12T11:46:43;1.77;;;0.70;;
59193;SDS011;44967;48.598;15.650;2023-04-12T11:49:09;2.90;;;0.90;;
59193;SDS011;44967;48.598;15.650;2023-04-12T11:51:34;4.57;;;0.85;;
59193;SDS011;44967;48.598;15.650;2023-04-12T11:54:00;3.70;;;1.00;;
59193;SDS011;44967;48.598;15.650;2023-04-12T11:56:27;3.35;;;1.50;;
59193;SDS011;44967;48.598;15.650;2023-04-12T11:58:53;2.83;;;1.30;;
59193;SDS011;44967;48.598;15.650;2023-04-12T12:01:19;1.92;;;1.05;;
59193;SDS011;44967;48.598;15.650;2023-04-12T12:03:47;4.55;;;1.10;;
59193;SDS011;44967;48.598;15.650;2023-04-12T12:06:13;1.92;;;1.40;;
59193;SDS011;44967;48.598;15.650;2023-04-12T12:08:40;2.10;;;0.95;;
59193;SDS011;44967;48.598;15.650;2023-04-12T12:11:06;2.25;;;0.93;;
59193;SDS011;44967;48.598;15.650;2023-04-12T12:13:48;3.50;;;1.50;;
59193;SDS011;44967;48.598;15.650;2023-04-12T12:16:19;3.78;;;1.27;;
59193;SDS011;44967;48.598;15.650;2023-04-12T12:18:49;2.15;;;1.00;;
59193;SDS011;44967;48.598;15.650;2023-04-12T12:21:15;2.45;;;1.20;;
59193;SDS011;44967;48.598;15.650;2023-04-12T12:23:41;1.35;;;1.10;;
59193;SDS011;44967;48.598;15.650;2023-04-12T12:26:08;3.08;;;1.27;;
59193;SDS011;44967;48.598;15.650;2023-04-12T12:28:37;2.90;;;1.10;;
59193;SDS011;44967;48.598;15.650;2023-04-12T12:31:06;2.55;;;1.05;;
59193;SDS011;44967;48.598;15.650;2023-04-12T12:33:38;5.47;;;1.27;;
59193;SDS011;44967;48.598;15.650;2023-04-12T12:36:05;1.95;;;1.20;;
59193;SDS011;44967;48.598;15.650;2023-04-12T12:38:34;2.40;;;1.25;;
59193;SDS011;44967;48.598;15.650;2023-04-12T12:41:22;2.38;;;1.17;;
59193;SDS011;44967;48.598;15.650;2023-04-12T12:43:52;2.45;;;1.48;;
59193;SDS011;44967;48.598;15.650;2023-04-12T12:46:18;1.70;;;1.13;;
59193;SDS011;44967;48.598;15.650;2023-04-12T12:48:45;2.00;;;1.10;;
59193;SDS011;44967;48.598;15.650;2023-04-12T12:51:13;1.17;;;1.00;;
59193;SDS011;44967;48.598;15.650;2023-04-12T12:53:42;2.33;;;1.10;;
59193;SDS011;44967;48.598;15.650;2023-04-12T12:56:08;4.32;;;1.30;;
59193;SDS011;44967;48.598;15.650;2023-04-12T12:58:35;4.85;;;1.15;;
59193;SDS011;44967;48.598;15.650;2023-04-12T13:01:02;3.15;;;1.48;;
59193;SDS011;44967;48.598;15.650;2023-04-12T13:03:29;1.70;;;1.13;;
59193;SDS011;44967;48.598;15.650;2023-04-12T13:05:55;3.38;;;1.00;;
59193;SDS011;44967;48.598;15.650;2023-04-12T13:08:21;3.25;;;1.40;;
59193;SDS011;44967;48.598;15.650;2023-04-12T13:10:47;2.00;;;1.30;;
59193;SDS011;44967;48.598;15.650;2023-04-12T13:13:13;2.05;;;1.30;;
59193;SDS011;44967;48.598;15.650;2023-04-12T13:15:39;2.60;;;1.08;;
59193;SDS011;44967;48.598;15.650;2023-04-12T13:18:05;1.58;;;1.02;;
59193;SDS011;44967;48.598;15.650;2023-04-12T13:20:32;2.88;;;0.90;;
59193;SDS011;44967;48.598;15.650;2023-04-12T13:22:58;1.60;;;1.15;;
59193;SDS011;44967;48.598;15.650;2023-04-12T13:25:24;5.07;;;1.23;;
59193;SDS011;44967;48.598;15.650;2023-04-12T13:27:50;3.80;;;1.17;;
59193;SDS011;44967;48.598;15.650;2023-04-12T13:30:17;2.55;;;1.33;;
59193;SDS011;44967;48.598;15.650;2023-04-12T13:32:43;1.02;;;0.90;;
59193;SDS011;44967;48.598;15.650;2023-04-12T13:35:09;2.00;;;1.20;;
59193;SDS011;44967;48.598;15.650;2023-04-12T13:37:35;3.22;;;0.80;;
59193;SDS011;44967;48.598;15.650;2023-04-12T13:40:01;1.83;;;0.98;;
59193;SDS011;44967;48.598;15.650;2023-04-12T13:42:27;2.35;;;0.88;;
59193;SDS011;44967;48.598;15.650;2023-04-12T13:44:53;3.75;;;1.15;;
59193;SDS011;44967;48.598;15.650;2023-04-12T13:47:19;1.77;;;1.08;;
59193;SDS011;44967;48.598;15.650;2023-04-12T13:49:45;3.35;;;1.50;;
59193;SDS011;44967;48.598;15.650;2023-04-12T13:52:11;2.33;;;0.88;;
59193;SDS011;44967;48.598;15.650;2023-04-12T13:54:37;4.15;;;1.25;;
59193;SDS011;44967;48.598;15.650;2023-04-12T13:57:03;2.50;;;0.90;;
59193;SDS011;44967;48.598;15.650;2023-04-12T13:59:34;1.48;;;1.08;;
59193;SDS011;44967;48.598;15.650;2023-04-12T14:02:00;3.40;;;1.10;;
59193;SDS011;44967;48.598;15.650;2023-04-12T14:04:27;2.35;;;1.10;;
59193;SDS011;44967;48.598;15.650;2023-04-12T14:06:53;1.77;;;0.90;;
59193;SDS011;44967;48.598;15.650;2023-04-12T14:09:24;4.80;;;1.27;;
59193;SDS011;44967;48.598;15.650;2023-04-12T14:11:51;1.73;;;1.17;;
59193;SDS011;44967;48.598;15.650;2023-04-12T14:14:22;4.60;;;1.55;;
59193;SDS011;44967;48.598;15.650;2023-04-12T14:16:49;1.38;;;1.05;;
59193;SDS011;44967;48.598;15.650;2023-04-12T14:19:18;3.88;;;1.35;;
59193;SDS011;44967;48.598;15.650;2023-04-12T14:21:44;4.05;;;1.35;;
59193;SDS011;44967;48.598;15.650;2023-04-12T14:24:11;5.45;;;1.10;;
59193;SDS011;44967;48.598;15.650;2023-04-12T14:26:37;2.70;;;1.20;;
59193;SDS011;44967;48.598;15.650;2023-04-12T14:29:04;3.22;;;1.10;;
59193;SDS011;44967;48.598;15.650;2023-04-12T14:31:30;1.25;;;1.10;;
59193;SDS011;44967;48.598;15.650;2023-04-12T14:33:56;2.90;;;1.20;;
59193;SDS011;44967;48.598;15.650;2023-04-12T14:36:22;2.13;;;1.42;;
59193;SDS011;44967;48.598;15.650;2023-04-12T14:38:47;2.45;;;1.13;;
59193;SDS011;44967;48.598;15.650;2023-04-12T14:41:13;1.65;;;1.13;;
59193;SDS011;44967;48.598;15.650;2023-04-12T14:43:39;2.92;;;1.50;;
59193;SDS011;44967;48.598;15.650;2023-04-12T14:46:05;5.95;;;1.38;;
59193;SDS011;44967;48.598;15.650;2023-04-12T14:48:34;3.25;;;1.48;;
59193;SDS011;44967;48.598;15.650;2023-04-12T14:51:00;6.07;;;1.48;;
59193;SDS011;44967;48.598;15.650;2023-04-12T14:53:26;1.92;;;1.20;;
59193;SDS011;44967;48.598;15.650;2023-04-12T14:55:51;1.95;;;1.67;;
59193;SDS011;44967;48.598;15.650;2023-04-12T14:58:17;1.88;;;1.55;;
59193;SDS011;44967;48.598;15.650;2023-04-12T15:00:43;3.53;;;1.65;;
59193;SDS011;44967;48.598;15.650;2023-04-12T15:03:09;3.92;;;1.45;;
59193;SDS011;44967;48.598;15.650;2023-04-12T15:05:34;4.60;;;1.60;;
59193;SDS011;44967;48.598;15.650;2023-04-12T15:08:00;3.15;;;1.60;;